Have a Safe July 4th! 

Flight Track Log - Related Links

Times and Time Zones

All times are in EDT time to prevent confusion due to time zone crossing. See the SWA709 flight status page for this flight to view local times or setup timezone preferences in your user account.

Time Position Orientation Groundspeed Altitude Reporting Facility
EDT Latitude Longitude Course Direction KTS MPH feet Rate Location/Type
Mon 07:30:06 AM 30.1178 -97.7019 270° West 185 213 3,900  Level Houston Center
Mon 07:31:07 AM 30.1258 -97.7564 280° West 220 253 6,400 2,656 Climbing Houston Center
Mon 07:32:08 AM 30.1850 -97.8053 324° Northwest 252 290 9,300 2,803 Climbing Houston Center
Mon 07:33:09 AM 30.2278 -97.8847 302° West 295 339 12,100 2,754 Climbing Houston Center
Mon 07:34:10 AM 30.2489 -97.9842 284° West 317 365 14,900 2,508 Climbing Houston Center
Mon 07:35:00 AM 30.4167 -97.9675 270° West  Level FlightAware Approximate
Mon 07:35:11 AM 30.2708 -98.0975 283° West 358 412 17,200  Level Houston Center
Mon 07:36:12 AM 30.2961 -98.2247 283° West 374 430 20,300 2,508 Climbing Houston Center
Mon 07:37:13 AM 30.3167 -98.3286 283° West 379 436 22,300 2,066 Climbing Houston Center
Mon 07:38:14 AM 30.3417 -98.4544 283° West 393 452 24,500 2,016 Climbing Houston Center
Mon 07:39:15 AM 30.3653 -98.5825 282° West 402 463 26,400 1,820 Climbing Houston Center
Mon 07:40:16 AM 30.3897 -98.7142 282° West 411 473 28,200 2,164 Climbing Houston Center
Mon 07:41:17 AM 30.4161 -98.8447 283° West 413 475 30,800 2,311 Climbing Houston Center
Mon 07:42:18 AM 30.4403 -98.9678 283° West 395 455 32,900 2,016 Climbing Houston Center
Mon 07:43:19 AM 30.4625 -99.0872 282° West 380 437 34,900 1,525 Climbing Houston Center
Mon 07:44:20 AM 30.4847 -99.2008 283° West 369 425 36,000 537 Climbing Houston Center
Mon 07:45:22 AM 30.5108 -99.3369 283° West 363 418 36,000  Level Houston Center
Mon 07:46:23 AM 30.5314 -99.4514 282° West 365 420 36,000  Level Houston Center
Mon 07:47:24 AM 30.5531 -99.5669 282° West 368 423 36,000  Level Houston Center
Mon 07:48:25 AM 30.5739 -99.6817 282° West 367 422 36,000  Level Houston Center
Mon 07:49:26 AM 30.5944 -99.7958 282° West 363 418 36,000  Level Houston Center
Mon 07:50:27 AM 30.6100 -99.9139 279° West 373 429 36,000  Level Houston Center
Mon 07:51:28 AM 30.6239 -100.0322 278° West 374 430 36,000  Level Houston Center
Mon 07:52:29 AM 30.6392 -100.1497 279° West 373 429 36,000  Level Houston Center
Mon 07:53:31 AM 30.6528 -100.2678 278° West 373 429 36,000  Level Houston Center
Mon 07:54:32 AM 30.6703 -100.4075 278° West 367 422 36,000  Level Houston Center
Mon 07:55:33 AM 30.6842 -100.5261 278° West 373 429 36,000  Level Houston Center
Mon 07:56:34 AM 30.6983 -100.6425 278° West 369 425 36,000  Level Houston Center
Mon 07:57:35 AM 30.7114 -100.7617 277° West 375 432 36,000  Level Houston Center
Mon 07:58:36 AM 30.7239 -100.8789 277° West 370 426 36,000  Level Houston Center
Mon 07:59:37 AM 30.7394 -100.9975 279° West 374 430 36,000  Level Houston Center
Mon 08:00:39 AM 30.7514 -101.1172 277° West 374 430 36,000  Level Houston Center
Mon 08:01:40 AM 30.7683 -101.2342 280° West 368 423 36,000  Level Houston Center
Mon 08:02:41 AM 30.7817 -101.3564 277° West 374 430 36,000  Level Houston Center
Mon 08:03:42 AM 30.7964 -101.5019 277° West 378 435 36,000  Level Houston Center
Mon 08:04:43 AM 30.8089 -101.6228 277° West 378 435 36,000  Level Houston Center
Mon 08:05:26 AM 30.8186 -101.7083 278° West 381 438 36,000  Level Albuquerque Center
Mon 08:06:26 AM 30.8319 -101.8289 277° West 377 434 36,000  Level Albuquerque Center
Mon 08:07:27 AM 30.8453 -101.9514 277° West 381 438 36,000  Level Albuquerque Center
Mon 08:08:27 AM 30.8583 -102.0728 277° West 380 437 36,000  Level Albuquerque Center
Mon 08:09:27 AM 30.8706 -102.1931 277° West 376 433 36,000  Level Albuquerque Center
Mon 08:10:28 AM 30.8842 -102.3133 278° West 376 433 36,000  Level Albuquerque Center
Mon 08:11:28 AM 30.8964 -102.4369 277° West 381 438 36,000  Level Albuquerque Center
Mon 08:12:28 AM 30.9086 -102.5586 277° West 380 437 36,000  Level Albuquerque Center
Mon 08:13:29 AM 30.9206 -102.6806 277° West 379 436 36,000  Level Albuquerque Center
Mon 08:14:29 AM 30.9339 -102.8033 277° West 382 440 36,000  Level Albuquerque Center
Mon 08:15:29 AM 30.9461 -102.9275 277° West 384 442 36,000  Level Albuquerque Center
Mon 08:16:30 AM 30.9717 -103.0481 284° West 386 444 36,000  Level Albuquerque Center
Mon 08:17:30 AM 31.0044 -103.1708 287° West 386 444 36,000  Level Albuquerque Center
Mon 08:18:30 AM 31.0378 -103.2894 288° West 386 444 36,000  Level Albuquerque Center
Mon 08:19:31 AM 31.0692 -103.4075 287° West 383 441 36,000  Level Albuquerque Center
Mon 08:20:31 AM 31.1025 -103.5261 288° West 385 443 36,000  Level Albuquerque Center
Mon 08:21:32 AM 31.1342 -103.6447 287° West 385 443 36,000  Level Albuquerque Center
Mon 08:22:32 AM 31.1736 -103.7603 292° West 385 443 36,000  Level Albuquerque Center
Mon 08:23:32 AM 31.2181 -103.8775 294° West 392 451 36,000  Level Albuquerque Center
Mon 08:24:33 AM 31.2619 -103.9942 294° West 394 453 36,000  Level Albuquerque Center
Mon 08:25:33 AM 31.3044 -104.1117 293° West 394 453 36,000  Level Albuquerque Center
Mon 08:26:34 AM 31.3475 -104.2297 293° West 394 453 36,000  Level Albuquerque Center
Mon 08:27:34 AM 31.3919 -104.3481 294° West 397 457 36,000  Level Albuquerque Center
Mon 08:28:35 AM 31.4333 -104.4647 293° West 396 456 36,000  Level Albuquerque Center
Mon 08:29:35 AM 31.4756 -104.5822 293° West 394 453 36,000  Level Albuquerque Center
Mon 08:30:36 AM 31.5172 -104.6983 293° West 391 450 36,000  Level Albuquerque Center
Mon 08:31:36 AM 31.5678 -104.8389 293° West 392 451 36,000  Level Albuquerque Center
Mon 08:32:36 AM 31.6100 -104.9569 293° West 394 453 36,000  Level Albuquerque Center
Mon 08:33:37 AM 31.6522 -105.0750 293° West 396 456 36,000  Level Albuquerque Center
Mon 08:34:37 AM 31.6950 -105.1942 293° West 398 458 36,000  Level Albuquerque Center
Mon 08:35:38 AM 31.7364 -105.3133 292° West 397 457 36,000  Level Albuquerque Center
Mon 08:36:38 AM 31.7783 -105.4311 293° West 394 453 36,000  Level Albuquerque Center
Mon 08:37:39 AM 31.8197 -105.5503 292° West 395 455 36,000  Level Albuquerque Center
Mon 08:38:39 AM 31.8614 -105.6689 292° West 394 453 36,000  Level Albuquerque Center
Mon 08:39:40 AM 31.9025 -105.7878 292° West 393 452 36,000  Level Albuquerque Center
Mon 08:40:40 AM 31.9444 -105.9053 293° West 391 450 36,000  Level Albuquerque Center
Mon 08:41:41 AM 31.9858 -106.0236 292° West 397 457 36,000  Level Albuquerque Center
Mon 08:42:41 AM 32.0258 -106.1428 292° West 392 451 36,000  Level Albuquerque Center
Mon 08:43:42 AM 32.0667 -106.2625 292° West 393 452 36,000  Level Albuquerque Center
Mon 08:44:42 AM 32.1083 -106.3819 292° West 395 455 36,000  Level Albuquerque Center
Mon 08:45:43 AM 32.1489 -106.5006 292° West 393 452 36,000  Level Albuquerque Center
Mon 08:46:43 AM 32.1900 -106.6197 292° West 393 452 36,000  Level Albuquerque Center
Mon 08:47:44 AM 32.2311 -106.7397 292° West 394 453 36,000  Level Albuquerque Center
Mon 08:48:44 AM 32.2806 -106.8847 292° West 399 459 36,000  Level Albuquerque Center
Mon 08:49:45 AM 32.3511 -106.9869 309° West 403 464 36,000  Level Albuquerque Center
Mon 08:50:45 AM 32.4261 -107.0861 312° West 406 467 36,000  Level Albuquerque Center
Mon 08:51:46 AM 32.4850 -107.1694 310° West 407 468 36,000  Level Albuquerque Center
Mon 08:52:46 AM 32.5642 -107.2742 312° West 403 464 36,000  Level Albuquerque Center
Mon 08:53:47 AM 32.6381 -107.3725 312° West 403 464 36,000  Level Albuquerque Center
Mon 08:54:47 AM 32.7144 -107.4778 311° West 404 465 36,000  Level Albuquerque Center
Mon 08:55:48 AM 32.7883 -107.5789 311° West 406 467 36,000  Level Albuquerque Center
Mon 08:56:49 AM 32.8639 -107.6800 312° West 407 468 36,000  Level Albuquerque Center
Mon 08:57:49 AM 32.9397 -107.7831 311° West 413 475 36,000  Level Albuquerque Center
Mon 08:58:50 AM 33.0164 -107.8856 312° West 415 478 36,000  Level Albuquerque Center
Mon 08:59:50 AM 33.0908 -107.9908 310° West 416 479 36,000  Level Albuquerque Center
Mon 09:00:51 AM 33.1683 -108.0956 311° West 420 483 36,000  Level Albuquerque Center
Mon 09:01:51 AM 33.2522 -108.2083 312° West 420 483 36,000  Level Albuquerque Center
Mon 09:02:52 AM 33.3278 -108.3125 311° West 420 483 36,000  Level Albuquerque Center
Mon 09:03:53 AM 33.4017 -108.4153 311° West 415 478 36,000  Level Albuquerque Center
Mon 09:04:53 AM 33.4767 -108.5197 311° West 418 481 36,000  Level Albuquerque Center
Mon 09:05:54 AM 33.5667 -108.6442 311° West 418 481 36,000  Level Albuquerque Center
Mon 09:06:54 AM 33.6414 -108.7472 311° West 416 479 36,000  Level Albuquerque Center
Mon 09:07:55 AM 33.7161 -108.8528 310° West 418 481 36,000  Level Albuquerque Center
Mon 09:08:56 AM 33.7894 -108.9589 310° West 419 482 36,000  Level Albuquerque Center
Mon 09:09:56 AM 33.8619 -109.0614 310° West 413 475 36,000  Level Albuquerque Center
Mon 09:10:57 AM 33.9364 -109.1656 311° West 407 468 36,000  Level Albuquerque Center
Mon 09:11:57 AM 34.0078 -109.2653 311° West 407 468 36,000  Level Albuquerque Center
Mon 09:12:58 AM 34.0803 -109.3697 310° West 409 471 36,000  Level Albuquerque Center
Mon 09:13:59 AM 34.1594 -109.4814 311° West 405 466 36,000  Level Albuquerque Center
Mon 09:14:59 AM 34.2297 -109.5819 310° West 407 468 36,000  Level Albuquerque Center
Mon 09:16:00 AM 34.3119 -109.7003 310° West 410 472 36,000  Level Albuquerque Center
Mon 09:17:01 AM 34.3836 -109.8028 310° West 413 475 36,000  Level Albuquerque Center
Mon 09:18:02 AM 34.4544 -109.9033 311° West 412 474 36,000  Level Albuquerque Center
Mon 09:19:02 AM 34.5361 -110.0231 310° West 411 473 36,000  Level Albuquerque Center
Mon 09:20:03 AM 34.6075 -110.1272 310° West 415 478 36,000  Level Albuquerque Center
Mon 09:21:04 AM 34.6800 -110.2317 310° West 419 482 36,000  Level Albuquerque Center
Mon 09:22:05 AM 34.7608 -110.3503 310° West 413 475 36,000  Level Albuquerque Center
Mon 09:23:05 AM 34.8292 -110.4503 310° West 407 468 36,000  Level Albuquerque Center
Mon 09:24:06 AM 34.8961 -110.5503 309° West 400 460 36,000  Level Albuquerque Center
Mon 09:25:07 AM 34.9392 -110.6906 291° West 411 473 36,000  Level Albuquerque Center
Mon 09:26:08 AM 34.9711 -110.8206 287° West 405 466 36,000  Level Albuquerque Center
Mon 09:27:09 AM 35.0042 -110.9503 287° West 403 464 36,000  Level Albuquerque Center
Mon 09:28:09 AM 35.0372 -111.0831 287° West 407 468 36,000  Level Albuquerque Center
Mon 09:29:10 AM 35.0725 -111.2203 287° West 417 480 36,000  Level Albuquerque Center
Mon 09:30:11 AM 35.1058 -111.3544 287° West 417 480 36,000  Level Albuquerque Center
Mon 09:31:12 AM 35.1386 -111.4892 287° West 416 479 36,000 -689 Level Albuquerque Center
Mon 09:32:13 AM 35.1714 -111.6239 287° West 416 479 34,600 -2,083 Descending Albuquerque Center
Mon 09:33:13 AM 35.2058 -111.7608 287° West 411 473 31,800 -2,281 Descending Albuquerque Center
Mon 09:34:14 AM 35.2378 -111.8925 287° West 409 471 30,000 -885 Descending Albuquerque Center
Mon 09:35:15 AM 35.2672 -112.0225 286° West 401 461 30,000  Level Albuquerque Center
Mon 09:36:16 AM 35.3006 -112.1528 287° West 403 464 30,000  Level Albuquerque Center
Mon 09:37:17 AM 35.3308 -112.2839 286° West 403 464 30,000  Level Albuquerque Center
Mon 09:38:18 AM 35.3625 -112.4158 286° West 405 466 30,000  Level Albuquerque Center
Mon 09:39:04 AM 35.3872 -112.5208 286° West 405 466 30,000  Level Los Angeles Center
Mon 09:40:05 AM 35.4225 -112.6658 287° West 400 460 30,000  Level Los Angeles Center
Mon 09:41:07 AM 35.4539 -112.7989 286° West 405 466 30,000  Level Los Angeles Center
Mon 09:42:08 AM 35.4847 -112.9325 286° West 406 467 30,000  Level Los Angeles Center
Mon 09:43:09 AM 35.5153 -113.0647 286° West 400 460 30,000  Level Los Angeles Center
Mon 09:44:11 AM 35.5464 -113.2000 286° West 407 468 30,000 -49 Level Los Angeles Center
Mon 09:45:12 AM 35.5764 -113.3317 286° West 412 474 29,900 -1,525 Descending Los Angeles Center
Mon 09:46:13 AM 35.6131 -113.4922 286° West 412 474 26,900 -2,634 Descending Los Angeles Center
Mon 09:47:15 AM 35.6367 -113.6225 283° West 396 456 24,500 -2,293 Descending Los Angeles Center
Mon 09:48:16 AM 35.6542 -113.7492 280° West 381 438 22,200 -2,195 Descending Los Angeles Center
Mon 09:49:18 AM 35.6714 -113.8694 280° West 366 421 20,000 -2,098 Descending Los Angeles Center
Mon 09:50:19 AM 35.6872 -113.9856 280° West 351 404 17,900 -2,049 Descending Los Angeles Center
Mon 09:51:21 AM 35.7031 -114.0969 280° West 338 389 15,800 -2,202 Descending Los Angeles Center
Mon 09:52:08 AM 35.7192 -114.2033 281° West 334 384 13,900 -2,019 Descending Los Angeles Center
Mon 09:53:08 AM 35.7350 -114.3122 280° West 326 375 12,200 -1,342 Descending Los Angeles Center
Mon 09:53:24 AM 35.7333 -114.3239 260° West 321 369 12,200 -327 Level Los Angeles Center
Mon 09:54:03 AM 35.7631 -114.3983 296° West 309 356 11,900 -492 Descending Los Angeles Center
Mon 09:54:25 AM 35.7725 -114.4106 314° West 307 353 11,700 -984 Descending Los Angeles Center
Mon 09:55:04 AM 35.8283 -114.4667 321° Northwest 308 354 10,900 -1,180 Descending Los Angeles Center
Mon 09:55:26 AM 35.8500 -114.4919 317° Northwest 303 349 10,500 -1,000 Descending Los Angeles Center
Mon 09:55:52 AM 35.8764 -114.5167 323° Northwest 299 344 10,100 -968 Descending Los Angeles Center
Mon 09:56:28 AM 35.9122 -114.5575 317° Northwest 297 342 9,500 -986 Descending Los Angeles Center
Mon 09:57:05 AM 35.9508 -114.5981 320° Northwest 290 334 8,900 -984 Descending Los Angeles Center
Mon 09:57:29 AM 35.9719 -114.6211 319° Northwest 286 329 8,500 -977 Descending Los Angeles Center
Mon 09:57:48 AM 35.9906 -114.6406 320° Northwest 283 326 8,200 -774 Descending Los Angeles Center
Mon 09:58:31 AM 36.0233 -114.6897 310° West 281 323 7,700 -700 Descending Los Angeles Center
Mon 09:58:48 AM 36.0297 -114.7206 284° West 282 325 7,500 -1,048 Descending Los Angeles Center
Mon 09:59:34 AM 36.0472 -114.7811 290° West 279 321 6,600 -896 Descending Los Angeles Center
Mon 09:59:55 AM 36.0608 -114.8219 292° West 276 318 6,500 -197 Descending Los Angeles Center
Mon 10:00:35 AM 36.0728 -114.8628 290° West 269 310 6,400 -98 Descending Los Angeles Center
Mon 10:00:56 AM 36.0731 -114.8978 271° West 230 265 6,400 -968 Level Los Angeles Center
Mon 10:01:37 AM 36.0733 -114.9358 271° West 237 273 5,400 -1,574 Descending Los Angeles Center
Mon 10:01:57 AM 36.0733 -114.9669 270° West 202 232 4,800 -1,475 Descending Los Angeles Center
Mon 10:02:38 AM 36.0744 -115.0019 272° West 211 243 3,900 -1,164 Descending Los Angeles Center
Mon 10:03:04 AM 36.0739 -115.0386 269° West 166 191 3,500 -871 Descending Los Angeles Center
Mon 10:03:40 AM 36.0742 -115.0692 271° West 184 212 3,000 -787 Descending Los Angeles Center
Mon 10:04:05 AM 36.0739 -115.0892 269° West 148 170 2,700 -689 Descending Los Angeles Center
Mon 10:04:41 AM 36.0744 -115.1161 271° West 159 183 2,300 -667 Descending Los Angeles Center
Mon 10:06:00 AM 36.0667 -115.1500 270° West  Level FlightAware Approximate

Login

Don't have an account? Register now (free) for customized features, flight alerts, and more!